Time;durP1;ratioP1;P1;durP2;ratioP2;P2;SDS_P1;SDS_P2;PMS_P1;PMS_P2;Temp;Humidity;BMP_temperature;BMP_pressure;BME280_temperature;BME280_humidity;BME280_pressure;Samples;Min_cycle;Max_cycle;Signal;HPM_P1;HPM_P2
2021/09/23 04:41:42;;;;;;;16.90;9.60;;;;;;;7.75;94.53;99950.98;1689165;82;21425;-36
2021/09/23 04:44:10;;;;;;;15.03;9.83;;;;;;;7.81;94.37;99951.45;1658866;85;21096;-37
2021/09/23 04:46:39;;;;;;;11.60;9.80;;;;;;;7.83;93.95;99950.62;1641889;86;21113;-37
2021/09/23 04:49:07;;;;;;;14.98;9.53;;;;;;;7.85;93.79;99947.58;1626056;85;21107;-36
2021/09/23 04:51:34;;;;;;;16.55;9.63;;;;;;;7.87;93.39;99952.79;1628990;86;21002;-37
2021/09/23 04:54:03;;;;;;;13.25;9.85;;;;;;;7.87;93.28;99950.19;1601176;88;21151;-37
2021/09/23 04:56:30;;;;;;;13.65;9.83;;;;;;;7.86;93.17;99944.55;1640938;84;21525;-31
2021/09/23 04:58:59;;;;;;;13.30;10.13;;;;;;;7.86;93.21;99948.02;1661539;84;21158;-34
2021/09/23 05:01:28;;;;;;;16.42;10.40;;;;;;;7.86;93.17;99945.84;1686855;84;21501;-33
2021/09/23 05:03:59;;;;;;;17.65;10.25;;;;;;;7.84;93.04;99949.75;1649383;85;22031;-32
2021/09/23 05:06:27;;;;;;;17.60;9.88;;;;;;;7.82;93.02;99951.45;1666996;84;20978;-32
2021/09/23 05:08:57;;;;;;;10.97;9.10;;;;;;;7.79;93.08;99950.59;1626668;86;21097;-32
2021/09/23 05:11:27;;;;;;;12.05;9.55;;;;;;;7.80;93.50;99943.20;1660478;85;20997;-34
2021/09/23 05:13:54;;;;;;;13.58;10.08;;;;;;;7.81;93.60;99950.16;1658335;85;21096;-32
2021/09/23 05:16:23;;;;;;;16.90;9.88;;;;;;;7.80;93.53;99950.59;1654604;85;21022;-32
2021/09/23 05:18:53;;;;;;;15.32;9.85;;;;;;;7.80;93.75;99951.02;1651981;85;21145;-32
2021/09/23 05:21:20;;;;;;;13.95;9.73;;;;;;;7.82;93.74;99951.89;1656284;85;21535;-38
2021/09/23 05:23:50;;;;;;;14.65;9.85;;;;;;;7.83;93.82;99954.52;1655436;85;22242;-37
2021/09/23 05:26:26;;;;;;;16.10;10.05;;;;;;;7.83;93.73;99955.83;1650960;85;21029;-37
2021/09/23 05:41:27;;;;;;;14.28;9.40;;;;;;;7.87;93.61;99957.56;1650535;84;20998;-34
2021/09/23 05:47:35;;;;;;;11.05;8.63;;;;;;;7.99;93.39;99957.63;1649255;84;21464;-37
2021/09/23 05:50:03;;;;;;;9.90;7.78;;;;;;;8.02;92.99;99959.83;1653221;84;21521;-31
2021/09/23 05:52:30;;;;;;;11.78;8.88;;;;;;;8.05;93.11;99955.48;1655354;84;21132;-31
2021/09/23 05:54:57;;;;;;;11.53;8.98;;;;;;;8.08;92.80;99963.33;1660788;84;21497;-37
2021/09/23 05:57:25;;;;;;;13.68;8.75;;;;;;;8.14;92.70;99961.19;1651516;84;21045;-37
2021/09/23 05:59:53;;;;;;;13.20;9.03;;;;;;;8.17;91.76;99959.44;1653166;84;21095;-32
2021/09/23 06:02:23;;;;;;;12.05;7.97;;;;;;;8.17;91.63;99959.44;1657049;84;21063;-37
2021/09/23 06:04:50;;;;;;;19.25;8.65;;;;;;;8.20;91.44;99964.69;1650208;84;21013;-37
2021/09/23 06:07:18;;;;;;;12.18;7.03;;;;;;;8.23;91.15;99966.02;1655018;85;21556;-38
2021/09/23 06:09:45;;;;;;;10.48;7.15;;;;;;;8.27;91.32;99965.58;1654185;84;21565;-38
2021/09/23 06:12:12;;;;;;;9.20;7.20;;;;;;;8.31;91.31;99963.43;1630330;85;21603;-38
2021/09/23 06:14:40;;;;;;;11.50;7.15;;;;;;;8.32;91.17;99957.34;1650013;85;21129;-37
2021/09/23 06:17:06;;;;;;;34.90;8.33;;;;;;;8.34;90.75;99963.42;1655653;85;21168;-38
2021/09/23 06:19:35;;;;;;;20.50;7.62;;;;;;;8.36;90.30;99963.48;1646792;84;21164;-33
2021/09/23 06:22:04;;;;;;;9.48;7.53;;;;;;;8.38;90.49;99964.35;1648054;84;21014;-38
2021/09/23 06:24:30;;;;;;;18.02;8.90;;;;;;;8.40;90.58;99962.17;1651877;85;21081;-38
2021/09/23 06:26:59;;;;;;;14.65;8.55;;;;;;;8.45;90.67;99960.45;1651439;85;21032;-33
2021/09/23 06:29:31;;;;;;;10.43;7.50;;;;;;;8.49;90.79;99963.52;1653810;84;21112;-38
2021/09/23 06:32:00;;;;;;;9.53;7.65;;;;;;;8.53;90.75;99967.02;1652164;84;22146;-32
2021/09/23 06:34:28;;;;;;;10.38;7.40;;;;;;;8.57;89.92;99962.23;1625945;85;21088;-37
2021/09/23 06:36:55;;;;;;;11.05;8.00;;;;;;;8.59;89.25;99961.83;1648432;84;21415;-38
2021/09/23 06:39:27;;;;;;;14.05;7.85;;;;;;;8.62;88.85;99958.34;1660891;84;21206;-32
2021/09/23 06:41:56;;;;;;;9.60;7.33;;;;;;;8.64;88.74;99953.58;1658083;85;21041;-32
2021/09/23 06:44:25;;;;;;;9.23;7.05;;;;;;;8.69;88.91;99951.83;1620329;87;21111;-37
2021/09/23 06:46:52;;;;;;;14.40;7.55;;;;;;;8.75;88.53;99954.45;1656229;85;21503;-32
2021/09/23 06:49:23;;;;;;;15.28;7.80;;;;;;;8.81;88.36;99953.59;1655787;85;21069;-32
2021/09/23 06:51:51;;;;;;;10.13;6.60;;;;;;;8.86;88.50;99945.77;1621703;86;21536;-36
2021/09/23 06:54:18;;;;;;;8.30;6.17;;;;;;;8.92;87.78;99958.39;1618505;86;21435;-37
2021/09/23 06:56:46;;;;;;;8.28;6.22;;;;;;;8.98;87.57;99952.31;1617797;86;21067;-32
2021/09/23 06:59:14;;;;;;;6.80;6.10;;;;;;;9.06;88.14;99957.98;1655685;84;21096;-37
2021/09/23 07:01:44;;;;;;;8.23;6.55;;;;;;;9.13;86.00;99952.77;1658606;84;21036;-37
2021/09/23 07:04:13;;;;;;;9.68;6.47;;;;;;;9.15;84.90;99950.58;1656146;85;21124;-38
2021/09/23 07:07:00;;;;;;;10.78;7.03;;;;;;;9.13;85.15;99956.25;1658305;85;21043;-38
2021/09/23 07:09:32;;;;;;;9.50;6.85;;;;;;;9.14;85.46;99955.81;1703884;82;21595;-33
2021/09/23 07:12:01;;;;;;;22.80;10.23;;;;;;;9.18;85.54;99953.65;1697854;83;21073;-38
2021/09/23 07:14:28;;;;;;;11.08;7.80;;;;;;;9.25;85.59;99954.08;1680529;83;21076;-38
2021/09/23 07:16:56;;;;;;;10.03;7.50;;;;;;;9.35;85.21;99954.95;1694765;83;21024;-37
2021/09/23 07:19:24;;;;;;;18.07;9.98;;;;;;;9.44;84.57;99957.54;1700172;82;20992;-32
2021/09/23 07:21:57;;;;;;;14.00;8.38;;;;;;;9.48;83.79;99957.55;1700238;83;21125;-38
2021/09/23 07:24:32;;;;;;;13.30;8.35;;;;;;;9.52;82.94;99959.73;1697095;82;21026;-32
2021/09/23 07:27:07;;;;;;;10.20;7.97;;;;;;;9.55;82.14;99953.17;1658773;83;21116;-33
2021/09/23 07:29:35;;;;;;;12.95;7.87;;;;;;;9.57;82.33;99951.02;1693374;83;21100;-32
2021/09/23 07:32:02;;;;;;;10.95;7.53;;;;;;;9.60;81.56;99956.66;1691128;83;21619;-32
2021/09/23 07:34:29;;;;;;;15.28;7.62;;;;;;;9.61;82.13;99954.48;1692291;83;21028;-32
2021/09/23 07:36:57;;;;;;;15.28;9.10;;;;;;;9.67;82.09;99954.91;1688265;83;21452;-37
2021/09/23 07:39:24;;;;;;;11.65;7.45;;;;;;;9.74;82.17;99958.83;1693863;83;21476;-32
2021/09/23 07:41:51;;;;;;;21.12;10.08;;;;;;;9.80;81.11;99960.56;1694451;83;20961;-38
2021/09/23 07:44:22;;;;;;;7.33;6.60;;;;;;;9.83;80.67;99960.53;1686385;84;21100;-32
2021/09/23 07:46:49;;;;;;;24.32;12.03;;;;;;;9.83;79.98;99961.41;1647825;85;22005;-38
2021/09/23 07:49:18;;;;;;;9.88;7.08;;;;;;;9.87;80.16;99964.89;1693857;83;21056;-37
2021/09/23 07:51:46;;;;;;;10.80;7.30;;;;;;;9.93;80.75;99957.47;1699433;83;20965;-32
2021/09/23 07:54:14;;;;;;;18.77;8.98;;;;;;;9.99;80.85;99958.32;1707000;83;21058;-32
2021/09/23 07:56:41;;;;;;;10.58;7.10;;;;;;;10.07;80.35;99956.98;1699825;83;20984;-32
2021/09/23 07:59:10;;;;;;;11.50;6.15;;;;;;;10.13;79.60;99957.83;1694885;82;21036;-32
2021/09/23 08:01:37;;;;;;;12.50;5.30;;;;;;;10.21;79.63;99953.89;1705979;83;21565;-38
2021/09/23 08:04:05;;;;;;;11.33;5.33;;;;;;;10.33;78.47;99952.56;1709226;83;21103;-37
2021/09/23 08:06:32;;;;;;;7.53;5.15;;;;;;;10.43;77.70;99950.76;1664821;85;21028;-32
2021/09/23 08:09:01;;;;;;;10.10;5.33;;;;;;;10.50;77.25;99951.18;1687301;83;21040;-37
2021/09/23 08:11:34;;;;;;;6.62;4.72;;;;;;;10.58;76.02;99952.44;1676870;83;21032;-37
2021/09/23 08:14:06;;;;;;;5.97;4.58;;;;;;;10.59;75.50;99951.11;1685613;83;21072;-31
2021/09/23 08:16:35;;;;;;;5.40;4.65;;;;;;;10.58;74.94;99946.77;1689463;83;21016;-41
2021/09/23 08:19:06;;;;;;;4.95;4.42;;;;;;;10.61;74.56;99952.41;1665231;84;21396;-37
2021/09/23 08:21:38;;;;;;;6.23;4.53;;;;;;;10.63;74.11;99953.28;1670011;83;21015;-32
2021/09/23 08:24:05;;;;;;;7.97;5.72;;;;;;;10.58;73.86;99944.59;1661232;85;21129;-37
2021/09/23 08:26:33;;;;;;;6.80;5.33;;;;;;;10.53;74.29;99946.36;1690136;83;21364;-37
2021/09/23 08:29:00;;;;;;;6.67;4.97;;;;;;;10.44;74.07;99944.67;1689899;83;21512;-38
2021/09/23 08:31:27;;;;;;;10.32;5.65;;;;;;;10.34;74.25;99947.77;1693361;83;20985;-37
2021/09/23 08:33:57;;;;;;;5.20;4.70;;;;;;;10.28;74.30;99943.87;1676421;83;21128;-32
2021/09/23 08:36:23;;;;;;;6.05;5.45;;;;;;;10.26;73.87;99946.04;1697092;82;21005;-38
2021/09/23 08:38:51;;;;;;;6.45;5.12;;;;;;;10.26;74.05;99949.97;1673557;83;21091;-38
2021/09/23 08:41:18;;;;;;;6.72;5.40;;;;;;;10.27;73.99;99948.67;1666637;84;21430;-37
2021/09/23 08:43:47;;;;;;;6.40;5.67;;;;;;;10.32;74.39;99948.63;1694130;83;21115;-37
2021/09/23 08:46:16;;;;;;;5.75;5.20;;;;;;;10.38;74.26;99946.88;1664971;85;20946;-37
2021/09/23 08:48:45;;;;;;;5.83;5.22;;;;;;;10.43;73.69;99945.97;1698349;83;21092;-37
2021/09/23 08:51:12;;;;;;;6.60;5.72;;;;;;;10.44;73.50;99948.60;1705096;83;21009;-37
2021/09/23 08:53:40;;;;;;;6.17;5.53;;;;;;;10.44;73.46;99949.04;1700473;83;21456;-32
2021/09/23 08:56:12;;;;;;;6.50;5.55;;;;;;;10.41;72.58;99945.98;1704746;83;21044;-37
2021/09/23 08:58:39;;;;;;;;;;;;;;;10.37;72.16;99943.81;1693040;83;21615;-32
2021/09/23 09:01:18;;;;;;;6.00;5.12;;;;;;;10.36;72.56;99942.52;1703439;83;20138;-37
2021/09/23 09:04:00;;;;;;;7.00;4.95;;;;;;;10.34;72.84;99939.92;1690793;83;21678;-33
2021/09/23 09:07:00;;;;;;;6.78;5.45;;;;;;;10.33;72.91;99938.19;1695907;83;21421;-38
2021/09/23 09:09:31;;;;;;;6.45;5.15;;;;;;;10.33;73.45;99942.55;1691039;82;21090;-37
2021/09/23 09:12:02;;;;;;;8.28;6.25;;;;;;;10.36;72.71;99942.08;1638717;85;20987;-31
2021/09/23 09:14:30;;;;;;;5.53;5.03;;;;;;;10.39;72.40;99942.52;1649711;85;21077;-32
2021/09/23 09:17:06;;;;;;;6.92;4.70;;;;;;;10.42;71.87;99943.80;1653415;85;21938;-38
2021/09/23 09:19:55;;;;;;;5.50;4.92;;;;;;;10.45;71.76;99941.62;1645256;85;20994;-37
2021/09/23 09:22:25;;;;;;;5.05;4.55;;;;;;;10.47;71.61;99947.26;1667140;83;21446;-38
2021/09/23 09:25:12;;;;;;;5.17;4.20;;;;;;;10.49;70.10;99940.27;1695464;83;21540;-38
2021/09/23 09:27:45;;;;;;;5.10;4.10;;;;;;;10.49;69.70;99943.32;1686473;83;20966;-38
2021/09/23 09:30:18;;;;;;;4.35;3.95;;;;;;;10.45;69.65;99940.31;1694690;83;21050;-37
2021/09/23 09:32:48;;;;;;;6.35;5.25;;;;;;;10.41;69.85;99940.75;1673121;83;21024;-37
2021/09/23 09:35:25;;;;;;;5.33;4.60;;;;;;;10.38;70.61;99946.02;1650846;85;21003;-32
2021/09/23 09:37:54;;;;;;;6.00;4.97;;;;;;;10.39;70.79;99938.59;1706726;83;21067;-37
2021/09/23 09:40:27;;;;;;;5.42;4.47;;;;;;;10.42;70.99;99945.10;1703814;82;21094;-37
2021/09/23 09:42:54;;;;;;;;;;;;;;;10.46;71.32;99944.22;1702657;83;21173;-33
2021/09/23 09:45:27;;;;;;;9.05;5.78;;;;;;;10.51;71.91;99942.45;1705020;83;20342;-36
2021/09/23 09:47:56;;;;;;;6.53;5.80;;;;;;;10.55;70.86;99949.41;1708957;83;21654;-37
2021/09/23 09:50:30;;;;;;;7.25;6.50;;;;;;;10.55;71.26;99946.80;1681017;83;20980;-38
2021/09/23 09:53:09;;;;;;;8.00;6.80;;;;;;;10.55;71.56;99946.80;1702039;83;21048;-38
2021/09/23 09:55:40;;;;;;;7.58;6.28;;;;;;;10.62;72.42;99956.78;1706286;83;21007;-38
2021/09/23 09:58:09;;;;;;;10.98;7.40;;;;;;;10.71;72.63;99953.23;1706213;83;21059;-38
2021/09/23 10:00:38;;;;;;;9.23;5.85;;;;;;;10.73;72.25;99958.91;1694527;83;21496;-38
2021/09/23 10:03:05;;;;;;;7.60;6.87;;;;;;;10.70;72.25;99957.59;1693626;83;21100;-38
2021/09/23 10:05:34;;;;;;;7.42;6.55;;;;;;;10.66;71.62;99959.34;1686728;83;21073;-38
2021/09/23 10:08:05;;;;;;;9.50;6.72;;;;;;;10.64;71.18;99961.56;1690115;83;21072;-38
2021/09/23 10:10:35;;;;;;;11.57;6.75;;;;;;;10.63;71.20;99958.08;1689931;83;21068;-38
2021/09/23 10:13:07;;;;;;;7.35;6.17;;;;;;;10.63;71.84;99960.69;1695426;83;21231;-33
2021/09/23 10:15:34;;;;;;;7.55;6.53;;;;;;;10.65;72.08;99956.75;1689497;83;21020;-32
2021/09/23 10:18:03;;;;;;;9.65;6.53;;;;;;;10.69;70.81;99957.17;1690870;83;21116;-32
2021/09/23 10:20:34;;;;;;;7.83;6.30;;;;;;;10.70;70.22;99954.98;1696684;83;21067;-32
2021/09/23 10:23:05;;;;;;;8.10;7.08;;;;;;;10.68;70.24;99956.75;1712758;82;20981;-38
2021/09/23 10:25:36;;;;;;;11.78;8.68;;;;;;;10.68;70.76;99957.19;1700054;82;21048;-37
2021/09/23 10:28:06;;;;;;;7.62;6.80;;;;;;;10.71;71.39;99958.47;1646080;85;21112;-32
2021/09/23 10:30:41;;;;;;;9.48;6.47;;;;;;;10.70;70.89;99960.22;1691168;83;21087;-37
2021/09/23 10:33:46;;;;;;;7.92;6.47;;;;;;;10.66;70.26;99959.80;1674742;83;21057;-36
2021/09/23 10:37:20;;;;;;;7.80;6.28;;;;;;;10.59;69.48;99962.02;1699215;83;21556;-32
2021/09/23 10:39:54;;;;;;;12.18;10.48;;;;;;;10.51;70.51;99965.13;1682202;83;21075;-38
2021/09/23 10:42:45;;;;;;;8.73;7.75;;;;;;;10.49;72.05;99961.63;1683980;83;21061;-38
2021/09/23 10:46:03;;;;;;;7.70;6.45;;;;;;;10.53;72.43;99959.00;1650664;84;21047;-32
2021/09/23 10:49:03;;;;;;;11.08;7.17;;;;;;;10.59;72.04;99958.09;1672748;84;21168;-36
2021/09/23 10:51:39;;;;;;;8.93;7.05;;;;;;;10.69;72.06;99958.48;1629795;84;21143;-32
2021/09/23 10:54:09;;;;;;;9.33;6.92;;;;;;;10.78;71.42;99954.48;1709499;82;21763;-32
2021/09/23 10:56:37;;;;;;;10.70;7.35;;;;;;;10.85;71.06;99956.65;1652186;84;21037;-37
2021/09/23 10:59:04;;;;;;;8.08;7.28;;;;;;;10.88;70.88;99958.79;1685391;82;21681;-36
2021/09/23 11:01:39;;;;;;;9.73;6.80;;;;;;;10.92;70.46;99960.95;1714248;82;21001;-32
2021/09/23 11:04:06;;;;;;;9.13;7.50;;;;;;;10.92;70.53;99959.20;1710316;82;21489;-31
2021/09/23 11:06:40;;;;;;;11.20;7.67;;;;;;;10.95;70.72;99955.69;1678697;82;20996;-34
2021/09/23 11:09:20;;;;;;;11.25;8.25;;;;;;;10.99;70.61;99958.72;1676845;84;21039;-33
2021/09/23 11:11:50;;;;;;;10.98;7.45;;;;;;;11.00;70.85;99959.14;1619922;85;21018;-39
2021/09/23 11:14:19;;;;;;;8.73;6.35;;;;;;;11.07;71.53;99960.83;1680273;84;21163;-33
2021/09/23 11:16:51;;;;;;;6.65;5.90;;;;;;;11.09;70.42;99955.16;1687262;83;20990;-34
2021/09/23 11:19:22;;;;;;;7.65;6.25;;;;;;;11.08;69.88;99957.80;1692880;83;21018;-34
2021/09/23 11:21:51;;;;;;;7.05;6.35;;;;;;;11.06;70.24;99963.02;1686512;83;20976;-34
2021/09/23 11:24:22;;;;;;;6.65;5.75;;;;;;;11.04;70.15;99950.84;1658065;84;21573;-34
2021/09/23 11:26:51;;;;;;;7.28;5.60;;;;;;;11.05;69.76;99956.05;1689418;83;20948;-34
2021/09/23 11:29:20;;;;;;;6.53;5.90;;;;;;;11.05;69.28;99952.12;1678645;83;21048;-40
2021/09/23 11:31:51;;;;;;;7.62;5.95;;;;;;;11.05;69.49;99949.52;1678232;84;21047;-40
2021/09/23 11:34:37;;;;;;;7.03;5.90;;;;;;;11.09;69.31;99942.52;1670688;83;21527;-40
2021/09/23 11:37:07;;;;;;;6.28;5.30;;;;;;;11.11;68.55;99944.67;1680090;84;20980;-34
2021/09/23 11:39:49;;;;;;;8.03;6.17;;;;;;;11.12;68.35;99949.02;1675285;84;21529;-35
2021/09/23 11:42:21;;;;;;;9.05;5.47;;;;;;;11.10;68.14;99941.63;1618525;85;21643;-31
2021/09/23 11:44:51;;;;;;;9.40;6.28;;;;;;;11.08;67.47;99940.78;1654788;84;21143;-38
2021/09/23 11:47:19;;;;;;;7.12;6.42;;;;;;;11.09;69.08;99942.08;1669405;84;21512;-33
2021/09/23 11:49:50;;;;;;;7.40;6.10;;;;;;;11.13;69.21;99942.48;1662296;84;21072;-33
2021/09/23 11:52:35;;;;;;;6.35;4.80;;;;;;;11.14;69.17;99945.53;1681445;84;20981;-33
2021/09/23 11:55:03;;;;;;;5.67;5.08;;;;;;;11.15;67.48;99947.70;1686587;83;21461;-37
2021/09/23 11:57:30;;;;;;;7.53;6.17;;;;;;;11.18;67.07;99941.98;1645850;85;20996;-38
2021/09/23 12:00:01;;;;;;;9.70;7.28;;;;;;;11.20;67.07;99934.14;1683321;84;21067;-37
2021/09/23 12:02:32;;;;;;;10.23;7.25;;;;;;;11.24;67.53;99937.58;1671457;84;21575;-38
2021/09/23 12:04:59;;;;;;;7.95;6.00;;;;;;;11.29;67.97;99933.17;1640763;85;21059;-33
2021/09/23 12:07:28;;;;;;;8.13;6.92;;;;;;;11.33;67.53;99937.52;1664092;84;21016;-31
2021/09/23 12:10:11;;;;;;;6.87;5.90;;;;;;;11.36;68.18;99936.16;1639281;86;21052;-32
2021/09/23 12:12:56;;;;;;;7.87;5.62;;;;;;;11.41;68.45;99935.23;1695600;83;21989;-33
2021/09/23 12:15:24;;;;;;;6.45;5.60;;;;;;;11.46;67.86;99938.69;1682781;83;21053;-31
2021/09/23 12:17:57;;;;;;;7.10;5.90;;;;;;;11.53;67.40;99943.42;1701933;83;21463;-33
2021/09/23 12:20:40;;;;;;;7.10;5.25;;;;;;;11.58;66.85;99937.70;1704232;83;20961;-32
2021/09/23 12:23:29;;;;;;;6.90;6.20;;;;;;;11.64;66.24;99940.26;1654254;85;21584;-37
2021/09/23 12:26:12;;;;;;;6.37;5.47;;;;;;;11.68;66.60;99935.88;1700465;83;21542;-36
2021/09/23 12:28:45;;;;;;;7.00;5.75;;;;;;;11.72;66.54;99940.20;1634685;85;21049;-37
2021/09/23 12:31:14;;;;;;;8.65;6.22;;;;;;;11.72;65.75;99935.83;1678465;83;20985;-39
